createdAt,value
2023-03-08T00:00:41.865Z,970.72
2023-03-08T00:01:41.853Z,970.82
2023-03-08T00:02:41.854Z,970.81
2023-03-08T00:03:41.899Z,970.91
2023-03-08T00:04:41.879Z,970.94
2023-03-08T00:05:41.802Z,970.88
2023-03-08T00:06:41.806Z,970.92
2023-03-08T00:07:41.787Z,970.89
2023-03-08T00:08:41.874Z,970.83
2023-03-08T00:09:41.766Z,970.80
2023-03-08T00:10:41.755Z,970.82
2023-03-08T00:11:41.761Z,970.82
2023-03-08T00:12:41.739Z,970.81
2023-03-08T00:13:41.716Z,970.88
2023-03-08T00:14:41.715Z,970.83
2023-03-08T00:15:41.766Z,970.88
2023-03-08T00:16:41.720Z,970.86
2023-03-08T00:17:41.674Z,970.81
2023-03-08T00:18:41.664Z,970.85
2023-03-08T00:19:41.671Z,970.85
2023-03-08T00:20:41.654Z,970.86
2023-03-08T00:21:41.633Z,970.77
2023-03-08T00:22:41.626Z,970.75
2023-03-08T00:23:41.617Z,970.73
2023-03-08T00:24:41.604Z,970.77
2023-03-08T00:25:41.593Z,970.75
2023-03-08T00:26:41.584Z,970.85
2023-03-08T00:27:41.574Z,970.83
2023-03-08T00:28:41.640Z,970.79
2023-03-08T00:29:41.548Z,970.89
2023-03-08T00:30:41.546Z,970.83
2023-03-08T00:31:41.560Z,970.89
2023-03-08T00:32:41.644Z,970.92
2023-03-08T00:33:41.543Z,970.97
2023-03-08T00:34:41.498Z,971.02
2023-03-08T00:35:41.509Z,970.99
2023-03-08T00:36:41.499Z,971.09
2023-03-08T00:37:41.574Z,971.05
2023-03-08T00:38:41.481Z,971.05
2023-03-08T00:39:41.440Z,971.07
2023-03-08T00:40:41.445Z,971.08
2023-03-08T00:41:41.424Z,971.17
2023-03-08T00:42:41.431Z,971.13
2023-03-08T00:43:41.411Z,971.10
2023-03-08T00:44:41.400Z,971.18
2023-03-08T00:45:41.402Z,971.23
2023-03-08T00:46:41.413Z,971.05
2023-03-08T00:47:41.372Z,971.18
2023-03-08T00:48:41.374Z,971.10
2023-03-08T00:49:41.344Z,971.03
2023-03-08T00:50:41.332Z,970.97
2023-03-08T00:51:41.325Z,970.92
2023-03-08T00:52:41.313Z,970.95
2023-03-08T00:53:42.304Z,970.88
2023-03-08T00:54:41.317Z,970.95
2023-03-08T00:55:41.277Z,970.83
2023-03-08T00:56:41.276Z,970.86
2023-03-08T00:57:41.349Z,970.96
2023-03-08T00:58:41.254Z,970.83
2023-03-08T00:59:41.255Z,970.75
2023-03-08T01:00:41.362Z,970.73
2023-03-08T01:01:41.215Z,970.66
2023-03-08T01:02:41.300Z,970.63
2023-03-08T01:03:41.193Z,970.61
2023-03-08T01:04:41.207Z,970.75
2023-03-08T01:05:41.180Z,970.62
2023-03-08T01:06:41.185Z,970.79
2023-03-08T01:07:41.181Z,970.60
2023-03-08T01:08:41.144Z,970.59
2023-03-08T01:09:41.146Z,970.54
2023-03-08T01:10:41.115Z,970.57
2023-03-08T01:11:41.108Z,970.47
2023-03-08T01:12:41.097Z,970.52
2023-03-08T01:13:41.101Z,970.48
2023-03-08T01:14:41.076Z,970.51
2023-03-08T01:15:41.089Z,970.49
2023-03-08T01:16:41.064Z,970.54
2023-03-08T01:17:41.043Z,970.49
2023-03-08T01:18:41.046Z,970.54
2023-03-08T01:19:41.035Z,970.59
2023-03-08T01:20:41.021Z,970.50
2023-03-08T01:21:41.012Z,970.48
2023-03-08T01:22:40.989Z,970.39
2023-03-08T01:23:42.580Z,970.49
2023-03-08T01:24:40.986Z,970.43
2023-03-08T01:25:40.959Z,970.35
2023-03-08T01:26:40.946Z,970.28
2023-03-08T01:27:40.935Z,970.34
2023-03-08T01:28:40.930Z,970.38
2023-03-08T01:29:40.927Z,970.32
2023-03-08T01:30:40.907Z,970.34
2023-03-08T01:31:40.886Z,970.26
2023-03-08T01:32:40.922Z,970.21
2023-03-08T01:33:41.069Z,970.16
2023-03-08T01:34:40.866Z,970.17
2023-03-08T01:35:40.901Z,970.13
2023-03-08T01:36:40.868Z,970.13
2023-03-08T01:37:40.824Z,970.14
2023-03-08T01:38:40.815Z,970.14
2023-03-08T01:39:40.816Z,970.15
2023-03-08T01:40:40.805Z,970.15
2023-03-08T01:41:40.787Z,970.23
2023-03-08T01:42:40.775Z,970.14
2023-03-08T01:43:40.779Z,970.04
2023-03-08T01:44:40.765Z,970.08
2023-03-08T01:45:40.739Z,970.07
2023-03-08T01:46:40.725Z,970.13
2023-03-08T01:47:40.714Z,970.10
2023-03-08T01:48:40.708Z,970.05
2023-03-08T01:49:40.706Z,970.09
2023-03-08T01:50:40.692Z,970.06
2023-03-08T01:51:40.681Z,970.08
2023-03-08T01:52:40.672Z,970.01
2023-03-08T01:53:40.666Z,970.02
2023-03-08T01:54:40.655Z,969.95
2023-03-08T01:55:40.634Z,969.99
2023-03-08T01:56:40.639Z,970.01
2023-03-08T01:57:40.606Z,970.00
2023-03-08T01:58:40.604Z,969.99
2023-03-08T01:59:40.604Z,969.99
2023-03-08T02:00:40.577Z,969.94
2023-03-08T02:01:40.571Z,969.97
2023-03-08T02:02:40.576Z,969.99
2023-03-08T02:03:40.586Z,969.97
2023-03-08T02:04:40.557Z,969.98
2023-03-08T02:05:40.525Z,970.01
2023-03-08T02:06:40.534Z,970.07
2023-03-08T02:07:40.504Z,969.98
2023-03-08T02:08:40.501Z,969.98
2023-03-08T02:09:40.487Z,969.98
2023-03-08T02:10:40.477Z,969.99
2023-03-08T02:11:40.464Z,969.98
2023-03-08T02:12:40.468Z,969.94
2023-03-08T02:13:40.438Z,969.97
2023-03-08T02:14:40.459Z,969.97
2023-03-08T02:15:40.423Z,970.00
2023-03-08T02:16:40.420Z,969.98
2023-03-08T02:17:40.402Z,969.95
2023-03-08T02:18:40.411Z,969.97
2023-03-08T02:19:40.384Z,969.93
2023-03-08T02:20:40.380Z,969.94
2023-03-08T02:21:40.362Z,969.97
2023-03-08T02:22:40.352Z,969.82
2023-03-08T02:23:40.342Z,969.83
2023-03-08T02:24:40.334Z,969.83
2023-03-08T02:25:40.322Z,969.82
2023-03-08T02:26:40.324Z,969.83
2023-03-08T02:27:40.415Z,969.79
2023-03-08T02:28:40.294Z,969.78
2023-03-08T02:29:40.274Z,969.69
2023-03-08T02:30:40.274Z,969.72
2023-03-08T02:31:40.276Z,969.70
2023-03-08T02:32:40.315Z,969.61
2023-03-08T02:33:40.258Z,969.61
2023-03-08T02:34:40.241Z,969.67
2023-03-08T02:35:40.218Z,969.63
2023-03-08T02:36:40.206Z,969.59
2023-03-08T02:37:40.196Z,969.65
2023-03-08T02:38:40.197Z,969.63
2023-03-08T02:39:40.174Z,969.65
2023-03-08T02:40:40.165Z,969.72
2023-03-08T02:41:40.166Z,969.63
2023-03-08T02:42:40.148Z,969.63
2023-03-08T02:43:40.146Z,969.59
2023-03-08T02:44:40.127Z,969.61
2023-03-08T02:45:40.118Z,969.61
2023-03-08T02:46:40.107Z,969.57
2023-03-08T02:47:40.087Z,969.51
2023-03-08T02:48:40.097Z,969.47
2023-03-08T02:49:40.065Z,969.51
2023-03-08T02:50:40.056Z,969.50
2023-03-08T02:51:40.052Z,969.46
2023-03-08T02:52:40.057Z,969.47
2023-03-08T02:53:40.046Z,969.50
2023-03-08T02:54:40.030Z,969.44
2023-03-08T02:55:40.026Z,969.47
2023-03-08T02:56:40.012Z,969.46
2023-03-08T02:57:40.027Z,969.57
2023-03-08T02:58:40.001Z,969.52
2023-03-08T02:59:39.980Z,969.45
2023-03-08T03:00:39.969Z,969.49
2023-03-08T03:01:39.993Z,969.39
2023-03-08T03:02:39.954Z,969.41
2023-03-08T03:03:39.947Z,969.35
2023-03-08T03:04:39.951Z,969.37
2023-03-08T03:05:40.032Z,969.35
2023-03-08T03:06:39.909Z,969.26
2023-03-08T03:07:39.902Z,969.31
2023-03-08T03:08:39.882Z,969.31
2023-03-08T03:09:39.878Z,969.33
2023-03-08T03:10:45.153Z,969.23
2023-03-08T03:11:39.858Z,969.27
2023-03-08T03:12:39.846Z,969.22
2023-03-08T03:13:39.830Z,969.06
2023-03-08T03:14:39.825Z,969.06
2023-03-08T03:15:39.886Z,969.00
2023-03-08T03:16:39.809Z,969.03
2023-03-08T03:17:39.785Z,969.04
2023-03-08T03:18:39.778Z,968.97
2023-03-08T03:19:39.766Z,968.96
2023-03-08T03:20:39.780Z,968.95
2023-03-08T03:21:39.777Z,968.92
2023-03-08T03:22:39.735Z,968.86
2023-03-08T03:23:39.721Z,968.90
2023-03-08T03:24:39.717Z,968.76
2023-03-08T03:25:39.697Z,968.79
2023-03-08T03:26:39.694Z,968.76
2023-03-08T03:27:39.675Z,968.72
2023-03-08T03:28:39.692Z,968.77
2023-03-08T03:29:39.659Z,968.74
2023-03-08T03:30:39.648Z,968.73
2023-03-08T03:31:39.648Z,968.73
2023-03-08T03:32:39.715Z,968.76
2023-03-08T03:33:39.638Z,968.74
2023-03-08T03:34:39.611Z,968.77
2023-03-08T03:35:39.676Z,968.74
2023-03-08T03:36:39.585Z,968.65
2023-03-08T03:37:39.573Z,968.72
2023-03-08T03:38:39.576Z,968.75
2023-03-08T03:39:39.582Z,968.69
2023-03-08T03:40:39.545Z,968.69
2023-03-08T03:41:39.538Z,968.69
2023-03-08T03:42:39.517Z,968.70
2023-03-08T03:43:39.515Z,968.64
2023-03-08T03:44:39.515Z,968.63
2023-03-08T03:45:39.487Z,968.66
2023-03-08T03:46:39.539Z,968.60
2023-03-08T03:47:39.475Z,968.59
2023-03-08T03:48:39.479Z,968.56
2023-03-08T03:49:39.454Z,968.62
2023-03-08T03:50:39.459Z,968.48
2023-03-08T03:51:39.431Z,968.56
2023-03-08T03:52:39.422Z,968.53
2023-03-08T03:53:39.423Z,968.52
2023-03-08T03:54:39.401Z,968.49
2023-03-08T03:55:39.408Z,968.52
2023-03-08T03:56:39.375Z,968.50
2023-03-08T03:57:39.376Z,968.53
2023-03-08T03:58:39.355Z,968.46
2023-03-08T03:59:39.353Z,968.50
2023-03-08T04:00:39.353Z,968.49
2023-03-08T04:01:39.336Z,968.47
2023-03-08T04:02:39.324Z,968.53
2023-03-08T04:03:39.426Z,968.56
2023-03-08T04:04:39.296Z,968.53
2023-03-08T04:05:39.307Z,968.61
2023-03-08T04:06:39.281Z,968.56
2023-03-08T04:07:39.275Z,968.54
2023-03-08T04:08:39.258Z,968.45
2023-03-08T04:09:39.248Z,968.43
2023-03-08T04:10:39.237Z,968.43
2023-03-08T04:11:39.228Z,968.44
2023-03-08T04:12:39.209Z,968.42
2023-03-08T04:13:39.208Z,968.37
2023-03-08T04:14:39.200Z,968.41
2023-03-08T04:15:39.215Z,968.42
2023-03-08T04:16:39.192Z,968.35
2023-03-08T04:17:39.168Z,968.29
2023-03-08T04:18:39.160Z,968.25
2023-03-08T04:19:39.152Z,968.19
2023-03-08T04:20:39.129Z,968.18
2023-03-08T04:21:39.160Z,968.24
2023-03-08T04:22:39.109Z,968.25
2023-03-08T04:23:39.099Z,968.22
2023-03-08T04:24:39.079Z,968.23
2023-03-08T04:25:39.095Z,968.26
2023-03-08T04:26:39.058Z,968.27
2023-03-08T04:27:39.074Z,968.28
2023-03-08T04:28:39.037Z,968.30
2023-03-08T04:29:39.037Z,968.24
2023-03-08T04:30:39.027Z,968.21
2023-03-08T04:31:39.080Z,968.27
2023-03-08T04:32:39.065Z,968.30
2023-03-08T04:33:39.010Z,968.31
2023-03-08T04:34:38.996Z,968.35
2023-03-08T04:35:38.984Z,968.40
2023-03-08T04:36:38.958Z,968.34
2023-03-08T04:37:38.952Z,968.35
2023-03-08T04:38:38.968Z,968.29
2023-03-08T04:39:38.938Z,968.35
2023-03-08T04:40:38.918Z,968.32
2023-03-08T04:41:38.917Z,968.28
2023-03-08T04:42:38.907Z,968.20
2023-03-08T04:43:38.891Z,968.06
2023-03-08T04:44:38.891Z,968.10
2023-03-08T04:45:38.869Z,968.04
2023-03-08T04:46:38.906Z,968.02
2023-03-08T04:47:38.850Z,968.01
2023-03-08T04:48:38.848Z,968.03
2023-03-08T04:49:38.822Z,967.97
2023-03-08T04:50:38.809Z,967.98
2023-03-08T04:51:38.800Z,968.01
2023-03-08T04:52:38.791Z,968.01
2023-03-08T04:53:38.805Z,967.94
2023-03-08T04:54:38.780Z,967.92
2023-03-08T04:55:38.760Z,967.87
2023-03-08T04:56:38.750Z,967.96
2023-03-08T04:57:38.748Z,967.88
2023-03-08T04:58:38.728Z,967.80
2023-03-08T04:59:38.719Z,967.81
2023-03-08T05:00:38.729Z,967.83
2023-03-08T05:01:38.700Z,967.78
2023-03-08T05:02:38.705Z,967.68
2023-03-08T05:03:38.678Z,967.75
2023-03-08T05:04:38.722Z,967.73
2023-03-08T05:05:38.655Z,967.77
2023-03-08T05:06:38.646Z,967.77
2023-03-08T05:07:38.640Z,967.76
2023-03-08T05:08:38.648Z,967.71
2023-03-08T05:09:38.618Z,967.64
2023-03-08T05:10:38.603Z,967.58
2023-03-08T05:11:38.611Z,967.73
2023-03-08T05:12:38.596Z,967.62
2023-03-08T05:13:38.624Z,967.58
2023-03-08T05:14:38.551Z,967.56
2023-03-08T05:15:38.549Z,967.58
2023-03-08T05:16:38.618Z,967.57
2023-03-08T05:17:38.530Z,967.52
2023-03-08T05:18:38.511Z,967.61
2023-03-08T05:19:38.504Z,967.57
2023-03-08T05:20:38.501Z,967.61
2023-03-08T05:21:38.492Z,967.66
2023-03-08T05:22:55.078Z,967.70
2023-03-08T05:23:39.463Z,967.79
2023-03-08T05:24:38.452Z,967.67
2023-03-08T05:25:38.443Z,967.69
2023-03-08T05:26:38.435Z,967.65
2023-03-08T05:27:38.421Z,967.60
2023-03-08T05:28:38.413Z,967.60
2023-03-08T05:29:38.405Z,967.63
2023-03-08T05:30:38.400Z,967.62
2023-03-08T05:31:38.424Z,967.58
2023-03-08T05:32:38.406Z,967.59
2023-03-08T05:33:38.374Z,967.61
2023-03-08T05:34:38.342Z,967.53
2023-03-08T05:35:38.395Z,967.55
2023-03-08T05:36:38.346Z,967.44
2023-03-08T05:37:38.309Z,967.47
2023-03-08T05:38:38.300Z,967.49
2023-03-08T05:39:38.292Z,967.45
2023-03-08T05:40:38.284Z,967.46
2023-03-08T05:41:38.302Z,967.42
2023-03-08T05:42:38.267Z,967.40
2023-03-08T05:43:38.264Z,967.37
2023-03-08T05:44:38.241Z,967.33
2023-03-08T05:45:38.426Z,967.35
2023-03-08T05:46:38.288Z,967.24
2023-03-08T05:47:38.211Z,967.24
2023-03-08T05:48:38.211Z,967.24
2023-03-08T05:49:38.193Z,967.21
2023-03-08T05:50:38.172Z,967.20
2023-03-08T05:51:38.188Z,967.22
2023-03-08T05:52:38.171Z,967.15
2023-03-08T05:53:38.154Z,967.25
2023-03-08T05:54:38.134Z,967.28
2023-03-08T05:55:38.132Z,967.24
2023-03-08T05:56:38.101Z,967.30
2023-03-08T05:57:38.111Z,967.25
2023-03-08T05:58:38.095Z,967.32
2023-03-08T05:59:38.090Z,967.34
2023-03-08T06:00:38.065Z,967.42
2023-03-08T06:01:38.068Z,967.37
2023-03-08T06:02:38.042Z,967.41
2023-03-08T06:03:38.072Z,967.33
2023-03-08T06:04:38.025Z,967.38
2023-03-08T06:05:38.010Z,967.40
2023-03-08T06:06:38.015Z,967.39
2023-03-08T06:07:38.017Z,967.38
2023-03-08T06:08:37.994Z,967.32
2023-03-08T06:09:37.972Z,967.41
2023-03-08T06:10:37.957Z,967.36
2023-03-08T06:11:37.948Z,967.30
2023-03-08T06:12:37.951Z,967.36
2023-03-08T06:13:37.929Z,967.32
2023-03-08T06:14:37.950Z,967.37
2023-03-08T06:15:37.907Z,967.36
2023-03-08T06:16:38.064Z,967.35
2023-03-08T06:17:38.567Z,967.26
2023-03-08T06:18:37.895Z,967.28
2023-03-08T06:19:37.857Z,967.32
2023-03-08T06:20:37.848Z,967.29
2023-03-08T06:21:37.842Z,967.23
2023-03-08T06:22:37.842Z,967.23
2023-03-08T06:23:38.800Z,967.27
2023-03-08T06:24:37.837Z,967.26
2023-03-08T06:25:37.867Z,967.24
2023-03-08T06:26:37.805Z,967.19
2023-03-08T06:27:38.098Z,967.19
2023-03-08T06:28:37.782Z,967.11
2023-03-08T06:29:37.751Z,967.15
2023-03-08T06:30:37.806Z,967.11
2023-03-08T06:31:37.741Z,967.12
2023-03-08T06:32:37.862Z,967.09
2023-03-08T06:33:37.742Z,967.10
2023-03-08T06:34:37.703Z,967.09
2023-03-08T06:35:37.732Z,967.05
2023-03-08T06:36:37.678Z,967.00
2023-03-08T06:37:37.678Z,967.03
2023-03-08T06:38:37.687Z,967.02
2023-03-08T06:39:37.646Z,966.99
2023-03-08T06:40:37.640Z,967.02
2023-03-08T06:41:37.626Z,967.01
2023-03-08T06:42:41.512Z,966.96
2023-03-08T06:43:37.684Z,966.95
2023-03-08T06:44:39.661Z,966.91
2023-03-08T06:45:37.591Z,966.89
2023-03-08T06:46:37.578Z,966.88
2023-03-08T06:47:38.242Z,966.84
2023-03-08T06:48:37.778Z,966.81
2023-03-08T06:49:38.549Z,966.86
2023-03-08T06:50:37.549Z,966.77
2023-03-08T06:51:38.508Z,966.82
2023-03-08T06:52:37.599Z,966.88
2023-03-08T06:53:38.968Z,966.86
2023-03-08T06:54:37.514Z,966.70
2023-03-08T06:55:38.190Z,966.87
2023-03-08T06:56:37.470Z,966.79
2023-03-08T06:57:38.170Z,966.75
2023-03-08T06:58:37.481Z,966.71
2023-03-08T06:59:37.787Z,966.67
2023-03-08T07:00:37.671Z,966.69
2023-03-08T07:01:37.521Z,966.67
2023-03-08T07:02:37.400Z,966.74
2023-03-08T07:03:37.434Z,966.75
2023-03-08T07:04:37.441Z,966.66
2023-03-08T07:05:37.440Z,966.63
2023-03-08T07:06:37.366Z,966.63
2023-03-08T07:07:37.359Z,966.69
2023-03-08T07:08:37.394Z,966.61
2023-03-08T07:09:37.375Z,966.62
2023-03-08T07:10:37.313Z,966.60
2023-03-08T07:11:37.680Z,966.53
2023-03-08T07:12:37.292Z,966.58
2023-03-08T07:13:37.296Z,966.50
2023-03-08T07:14:37.279Z,966.54
2023-03-08T07:15:37.285Z,966.48
2023-03-08T07:16:37.247Z,966.45
2023-03-08T07:17:37.251Z,966.42
2023-03-08T07:18:37.236Z,966.37
2023-03-08T07:19:37.266Z,966.42
2023-03-08T07:20:38.369Z,966.44
2023-03-08T07:21:37.211Z,966.41
2023-03-08T07:22:37.924Z,966.41
2023-03-08T07:23:37.211Z,966.46
2023-03-08T07:24:38.174Z,966.38
2023-03-08T07:25:37.180Z,966.40
2023-03-08T07:26:37.357Z,966.38
2023-03-08T07:27:37.246Z,966.35
2023-03-08T07:28:37.228Z,966.40
2023-03-08T07:29:37.134Z,966.30
2023-03-08T07:30:37.248Z,966.37
2023-03-08T07:31:37.112Z,966.29
2023-03-08T07:32:38.049Z,966.30
2023-03-08T07:33:37.075Z,966.30
2023-03-08T07:34:37.096Z,966.28
2023-03-08T07:35:39.624Z,966.22
2023-03-08T07:36:37.082Z,966.24
2023-03-08T07:37:37.045Z,966.18
2023-03-08T07:38:37.014Z,966.18
2023-03-08T07:39:37.011Z,966.14
2023-03-08T07:40:37.022Z,966.06
2023-03-08T07:41:36.991Z,966.16
2023-03-08T07:42:37.014Z,966.05
2023-03-08T07:43:36.973Z,966.07
2023-03-08T07:44:36.964Z,966.07
2023-03-08T07:45:36.950Z,966.03
2023-03-08T07:46:37.039Z,966.03
2023-03-08T07:47:36.925Z,965.96
2023-03-08T07:48:36.930Z,965.94
2023-03-08T07:49:36.902Z,966.01
2023-03-08T07:50:36.913Z,965.95
2023-03-08T07:51:36.893Z,965.94
2023-03-08T07:52:36.895Z,965.92
2023-03-08T07:53:36.871Z,966.03
2023-03-08T07:54:36.855Z,965.99
2023-03-08T07:55:36.843Z,965.93
2023-03-08T07:56:36.823Z,965.94
2023-03-08T07:57:36.814Z,965.93
2023-03-08T07:58:36.825Z,965.88
2023-03-08T07:59:36.813Z,965.84
2023-03-08T08:00:36.795Z,965.85
2023-03-08T08:01:36.775Z,965.84
2023-03-08T08:02:36.766Z,965.86
2023-03-08T08:03:36.810Z,965.89
2023-03-08T08:04:36.763Z,965.84
2023-03-08T08:05:36.814Z,965.72
2023-03-08T08:06:36.737Z,965.67
2023-03-08T08:07:36.733Z,965.58
2023-03-08T08:08:36.696Z,965.62
2023-03-08T08:09:36.698Z,965.60
2023-03-08T08:10:36.686Z,965.63
2023-03-08T08:11:36.669Z,965.56
2023-03-08T08:12:36.674Z,965.63
2023-03-08T08:13:36.646Z,965.60
2023-03-08T08:14:36.636Z,965.55
2023-03-08T08:15:36.637Z,965.49
2023-03-08T08:16:36.655Z,965.49
2023-03-08T08:17:36.614Z,965.48
2023-03-08T08:18:36.607Z,965.42
2023-03-08T08:19:36.582Z,965.36
2023-03-08T08:20:36.575Z,965.38
2023-03-08T08:21:36.563Z,965.32
2023-03-08T08:22:36.562Z,965.39
2023-03-08T08:23:36.555Z,965.36
2023-03-08T08:24:36.532Z,965.35
2023-03-08T08:25:36.525Z,965.34
2023-03-08T08:26:36.504Z,965.30
2023-03-08T08:27:36.502Z,965.24
2023-03-08T08:28:36.484Z,965.16
2023-03-08T08:29:36.474Z,965.20
2023-03-08T08:30:36.465Z,965.14
2023-03-08T08:31:36.514Z,965.10
2023-03-08T08:32:36.554Z,964.98
2023-03-08T08:33:36.447Z,964.94
2023-03-08T08:34:36.428Z,964.90
2023-03-08T08:35:43.205Z,964.75
2023-03-08T08:36:37.404Z,964.84
2023-03-08T08:37:36.384Z,964.83
2023-03-08T08:38:36.398Z,964.85
2023-03-08T08:39:36.364Z,964.81
2023-03-08T08:40:36.361Z,964.80
2023-03-08T08:41:36.350Z,964.74
2023-03-08T08:42:36.336Z,964.80
2023-03-08T08:43:36.339Z,964.73
2023-03-08T08:44:36.394Z,964.78
2023-03-08T08:45:36.338Z,964.62
2023-03-08T08:46:36.301Z,964.62
2023-03-08T08:47:36.284Z,964.67
2023-03-08T08:48:36.294Z,964.68
2023-03-08T08:49:36.265Z,964.65
2023-03-08T08:50:36.252Z,964.76
2023-03-08T08:51:36.239Z,964.65
2023-03-08T08:52:36.261Z,964.60
2023-03-08T08:53:36.217Z,964.68
2023-03-08T08:54:36.235Z,964.58
2023-03-08T08:55:36.204Z,964.54
2023-03-08T08:56:36.193Z,964.67
2023-03-08T08:57:36.173Z,964.72
2023-03-08T08:58:36.173Z,964.46
2023-03-08T08:59:36.180Z,964.34
2023-03-08T09:00:36.145Z,964.55
2023-03-08T09:01:36.138Z,964.55
2023-03-08T09:02:36.163Z,964.62
2023-03-08T09:03:36.160Z,964.50
2023-03-08T09:04:36.265Z,964.43
2023-03-08T09:05:36.096Z,964.41
2023-03-08T09:06:36.104Z,964.37
2023-03-08T09:07:38.175Z,964.50
2023-03-08T09:08:36.069Z,964.66
2023-03-08T09:09:36.059Z,964.64
2023-03-08T09:10:36.043Z,964.53
2023-03-08T09:11:42.401Z,964.50
2023-03-08T09:12:37.061Z,964.49
2023-03-08T09:13:36.006Z,964.46
2023-03-08T09:14:35.999Z,964.48
2023-03-08T09:15:35.985Z,964.47
2023-03-08T09:16:36.065Z,964.50
2023-03-08T09:17:35.976Z,964.53
2023-03-08T09:18:35.960Z,964.54
2023-03-08T09:19:35.983Z,964.48
2023-03-08T09:20:35.937Z,964.52
2023-03-08T09:21:35.919Z,964.44
2023-03-08T09:22:35.930Z,964.43
2023-03-08T09:23:35.930Z,964.38
2023-03-08T09:24:35.891Z,964.36
2023-03-08T09:25:35.887Z,964.26
2023-03-08T09:26:35.873Z,964.34
2023-03-08T09:27:35.876Z,964.30
2023-03-08T09:28:35.875Z,964.19
2023-03-08T09:29:35.864Z,964.20
2023-03-08T09:30:35.833Z,964.29
2023-03-08T09:31:35.897Z,964.10
2023-03-08T09:32:35.828Z,964.01
2023-03-08T09:33:35.806Z,964.04
2023-03-08T09:34:35.819Z,964.12
2023-03-08T09:35:35.850Z,964.03
2023-03-08T09:36:35.777Z,964.02
2023-03-08T09:37:35.760Z,964.01
2023-03-08T09:38:35.746Z,963.99
2023-03-08T09:39:35.746Z,963.89
2023-03-08T09:40:35.727Z,964.05
2023-03-08T09:41:35.717Z,964.08
2023-03-08T09:42:35.720Z,963.94
2023-03-08T09:43:35.698Z,963.82
2023-03-08T09:44:35.702Z,963.79
2023-03-08T09:45:35.864Z,963.68
2023-03-08T09:46:35.678Z,963.74
2023-03-08T09:47:35.656Z,963.80
2023-03-08T09:48:35.664Z,963.73
2023-03-08T09:49:35.631Z,963.82
2023-03-08T09:50:35.642Z,963.76
2023-03-08T09:51:35.614Z,963.75
2023-03-08T09:52:35.604Z,963.77
2023-03-08T09:53:35.601Z,963.65
2023-03-08T09:54:35.588Z,963.62
2023-03-08T09:55:35.577Z,963.73
2023-03-08T09:56:35.559Z,963.73
2023-03-08T09:57:35.596Z,963.72
2023-03-08T09:58:35.550Z,963.73
2023-03-08T09:59:35.864Z,963.67
2023-03-08T10:00:35.556Z,963.65
2023-03-08T10:01:35.516Z,963.60
2023-03-08T10:02:35.551Z,963.54
2023-03-08T10:03:36.507Z,963.54
2023-03-08T10:04:35.542Z,963.53
2023-03-08T10:05:35.465Z,963.55
2023-03-08T10:06:35.466Z,963.56
2023-03-08T10:07:35.432Z,963.60
2023-03-08T10:08:35.436Z,963.58
2023-03-08T10:09:35.434Z,963.55
2023-03-08T10:10:35.414Z,963.43
2023-03-08T10:11:35.397Z,963.44
2023-03-08T10:12:35.384Z,963.49
2023-03-08T10:13:35.384Z,963.51
2023-03-08T10:14:35.368Z,963.53
2023-03-08T10:15:35.345Z,963.45
2023-03-08T10:16:35.472Z,963.29
2023-03-08T10:17:35.345Z,963.34
2023-03-08T10:18:35.335Z,963.36
2023-03-08T10:19:35.309Z,963.41
2023-03-08T10:20:35.294Z,963.34
2023-03-08T10:21:35.295Z,963.27
2023-03-08T10:22:35.295Z,963.28
2023-03-08T10:23:35.262Z,963.31
2023-03-08T10:24:35.257Z,963.34
2023-03-08T10:25:35.265Z,963.37
2023-03-08T10:26:35.237Z,963.28
2023-03-08T10:27:35.235Z,963.29
2023-03-08T10:28:35.222Z,963.39
2023-03-08T10:29:35.197Z,963.26
2023-03-08T10:30:35.223Z,963.37
2023-03-08T10:31:35.191Z,963.31
2023-03-08T10:32:35.233Z,963.33
2023-03-08T10:33:35.180Z,963.18
2023-03-08T10:34:35.161Z,963.32
2023-03-08T10:35:35.162Z,963.16
2023-03-08T10:36:35.139Z,963.30
2023-03-08T10:37:35.140Z,963.29
2023-03-08T10:38:35.135Z,963.16
2023-03-08T10:39:35.120Z,963.12
2023-03-08T10:40:35.102Z,963.15
2023-03-08T10:41:35.071Z,963.21
2023-03-08T10:42:35.070Z,963.07
2023-03-08T10:43:35.052Z,963.07
2023-03-08T10:44:35.062Z,963.03
2023-03-08T10:45:35.032Z,963.00
2023-03-08T10:46:35.079Z,962.99
2023-03-08T10:47:35.013Z,962.94
2023-03-08T10:48:35.005Z,962.99
2023-03-08T10:49:34.997Z,963.03
2023-03-08T10:50:34.985Z,962.88
2023-03-08T10:51:34.983Z,962.93
2023-03-08T10:52:34.980Z,962.85
2023-03-08T10:53:34.954Z,962.88
2023-03-08T10:54:34.949Z,962.92
2023-03-08T10:55:34.924Z,962.82
2023-03-08T10:56:34.973Z,962.98
2023-03-08T10:57:34.908Z,962.80
2023-03-08T10:58:34.915Z,962.82
2023-03-08T10:59:34.885Z,962.76
2023-03-08T11:00:34.885Z,962.96
2023-03-08T11:01:34.865Z,962.82
2023-03-08T11:02:34.864Z,962.81
2023-03-08T11:03:34.862Z,962.79
2023-03-08T11:04:34.845Z,962.97
2023-03-08T11:05:34.821Z,962.92
2023-03-08T11:06:34.825Z,962.90
2023-03-08T11:07:34.806Z,963.00
2023-03-08T11:08:34.807Z,962.74
2023-03-08T11:09:34.776Z,962.85
2023-03-08T11:10:34.848Z,963.03
2023-03-08T11:11:34.774Z,962.88
2023-03-08T11:12:34.783Z,962.90
2023-03-08T11:13:34.746Z,962.84
2023-03-08T11:14:34.781Z,962.74
2023-03-08T11:15:34.789Z,962.73
2023-03-08T11:16:34.706Z,962.67
2023-03-08T11:17:34.693Z,962.70
2023-03-08T11:18:34.686Z,962.70
2023-03-08T11:19:34.667Z,962.87
2023-03-08T11:20:34.685Z,962.78
2023-03-08T11:21:34.646Z,962.64
2023-03-08T11:22:34.653Z,962.64
2023-03-08T11:23:34.674Z,962.73
2023-03-08T11:24:34.676Z,962.79
2023-03-08T11:25:34.625Z,962.78
2023-03-08T11:26:34.597Z,963.03
2023-03-08T11:27:34.595Z,962.68
2023-03-08T11:28:34.613Z,962.66
2023-03-08T11:29:34.583Z,962.66
2023-03-08T11:30:34.560Z,962.67
2023-03-08T11:31:34.567Z,962.82
2023-03-08T11:32:34.573Z,962.83
2023-03-08T11:33:34.708Z,962.79
2023-03-08T11:34:34.508Z,962.79
2023-03-08T11:35:34.540Z,962.65
2023-03-08T11:36:34.511Z,962.83
2023-03-08T11:37:34.502Z,962.75
2023-03-08T11:38:34.469Z,962.91
2023-03-08T11:39:34.471Z,962.62
2023-03-08T11:40:34.460Z,962.72
2023-03-08T11:41:34.434Z,962.77
2023-03-08T11:42:34.431Z,962.60
2023-03-08T11:43:34.410Z,962.60
2023-03-08T11:44:34.408Z,962.76
2023-03-08T11:45:34.411Z,962.80
2023-03-08T11:46:34.561Z,962.66
2023-03-08T11:47:34.410Z,962.66
2023-03-08T11:48:34.398Z,962.60
2023-03-08T11:49:34.350Z,962.61
2023-03-08T11:50:34.350Z,962.67
2023-03-08T11:51:34.333Z,962.76
2023-03-08T11:52:34.330Z,962.55
2023-03-08T11:53:34.314Z,962.82
2023-03-08T11:54:34.303Z,962.61
2023-03-08T11:55:34.287Z,962.65
2023-03-08T11:56:34.293Z,962.57
2023-03-08T11:57:34.276Z,962.69
2023-03-08T11:58:34.259Z,962.67
2023-03-08T11:59:34.267Z,962.67
2023-03-08T12:00:34.230Z,962.71
2023-03-08T12:01:34.231Z,962.77
2023-03-08T12:02:34.211Z,962.57
2023-03-08T12:03:34.274Z,962.65
2023-03-08T12:04:34.311Z,962.73
2023-03-08T12:05:34.229Z,962.70
2023-03-08T12:06:34.270Z,962.72
2023-03-08T12:07:34.274Z,962.61
2023-03-08T12:08:34.147Z,962.77
2023-03-08T12:09:34.136Z,962.78
2023-03-08T12:10:34.120Z,962.68
2023-03-08T12:11:34.122Z,962.75
2023-03-08T12:12:34.120Z,962.70
2023-03-08T12:13:34.090Z,963.06
2023-03-08T12:14:34.081Z,962.84
2023-03-08T12:15:34.125Z,962.72
2023-03-08T12:16:34.228Z,962.82
2023-03-08T12:17:34.124Z,962.88
2023-03-08T12:18:34.038Z,962.70
2023-03-08T12:19:34.053Z,962.74
2023-03-08T12:20:34.021Z,962.69
2023-03-08T12:21:34.001Z,962.75
2023-03-08T12:22:34.040Z,962.71
2023-03-08T12:23:34.045Z,962.67
2023-03-08T12:24:34.039Z,962.59
2023-03-08T12:25:33.959Z,962.66
2023-03-08T12:26:34.030Z,962.71
2023-03-08T12:27:33.967Z,962.79
2023-03-08T12:28:33.952Z,962.66